Time;durP1;ratioP1;P1;durP2;ratioP2;P2;SDS_P1;SDS_P2;PMS_P1;PMS_P2;Temp;Humidity;BMP_temperature;BMP_pressure;BME280_temperature;BME280_humidity;BME280_pressure;Samples;Min_cycle;Max_cycle;Signal;HPM_P1;HPM_P2
2022/12/11 00:00:14;;;;;;;126.05;34.88;;;;;;;;;;4987298;28;98527;-71
2022/12/11 00:02:40;;;;;;;122.95;39.33;;;;;;;;;;4997551;28;99530;-72
2022/12/11 00:05:07;;;;;;;141.80;35.53;;;;;;;;;;4999956;28;99349;-72
2022/12/11 00:07:34;;;;;;;131.65;38.60;;;;;;;;;;5002698;28;99989;-71
2022/12/11 00:10:01;;;;;;;123.72;36.20;;;;;;;;;;4995961;28;100307;-71
2022/12/11 00:12:30;;;;;;;139.80;38.25;;;;;;;;;;4992324;28;99650;-71
2022/12/11 00:14:56;;;;;;;137.40;35.85;;;;;;;;;;4995697;28;99118;-71
2022/12/11 00:17:23;;;;;;;119.53;38.28;;;;;;;;;;4992520;28;99853;-71
2022/12/11 00:19:49;;;;;;;156.98;38.70;;;;;;;;;;4997445;28;98955;-71
2022/12/11 00:22:15;;;;;;;132.52;38.40;;;;;;;;;;4997336;28;99417;-71
2022/12/11 00:24:42;;;;;;;128.80;38.63;;;;;;;;;;4987449;28;100137;-72
2022/12/11 00:27:08;;;;;;;141.45;39.88;;;;;;;;;;4988757;28;99761;-70
2022/12/11 00:29:34;;;;;;;136.38;37.80;;;;;;;;;;4992493;28;100950;-71
2022/12/11 00:32:01;;;;;;;130.60;37.97;;;;;;;;;;4983753;28;99109;-71
2022/12/11 00:34:29;;;;;;;141.68;40.55;;;;;;;;;;4992826;28;99175;-71
2022/12/11 00:36:55;;;;;;;138.88;39.22;;;;;;;;;;4996070;28;99329;-71
2022/12/11 00:39:21;;;;;;;139.77;39.97;;;;;;;;;;4983823;28;98766;-70
2022/12/11 00:41:48;;;;;;;142.88;40.53;;;;;;;;;;4991143;28;99541;-71
2022/12/11 00:44:14;;;;;;;121.00;36.80;;;;;;;;;;4997525;28;100439;-71
2022/12/11 00:46:40;;;;;;;138.15;38.70;;;;;;;;;;4986649;28;99963;-71
2022/12/11 00:49:07;;;;;;;138.00;36.13;;;;;;;;;;4988064;28;100228;-70
2022/12/11 00:51:33;;;;;;;122.68;37.00;;;;;;;;;;4994748;28;98949;-71
2022/12/11 00:53:59;;;;;;;112.43;36.78;;;;;;;;;;4984264;28;100337;-71
2022/12/11 00:56:26;;;;;;;129.35;38.88;;;;;;;;;;4995673;28;99397;-72
2022/12/11 00:58:52;;;;;;;128.18;38.60;;;;;;;;;;5004121;28;98952;-72
2022/12/11 01:01:20;;;;;;;106.18;35.70;;;;;;;;;;4995360;28;99651;-72
2022/12/11 01:03:47;;;;;;;119.22;36.33;;;;;;;;;;4995326;28;99105;-72
2022/12/11 01:06:19;;;;;;;128.27;37.65;;;;;;;;;;5000989;28;100074;-72
2022/12/11 01:08:46;;;;;;;134.25;38.63;;;;;;;;;;4990417;28;100225;-72
2022/12/11 01:11:13;;;;;;;129.45;37.30;;;;;;;;;;5002613;28;100614;-72
2022/12/11 01:13:40;;;;;;;145.32;38.50;;;;;;;;;;4991196;28;99511;-72
2022/12/11 01:16:08;;;;;;;144.43;39.47;;;;;;;;;;5001907;28;100490;-72
2022/12/11 01:18:34;;;;;;;130.10;39.40;;;;;;;;;;4986643;28;99250;-71
2022/12/11 01:21:08;;;;;;;146.32;40.63;;;;;;;;;;4983525;28;99450;-72
2022/12/11 01:23:34;;;;;;;154.75;41.42;;;;;;;;;;4994565;28;99526;-71
2022/12/11 01:26:05;;;;;;;142.40;39.63;;;;;;;;;;4996106;28;99944;-72
2022/12/11 01:28:31;;;;;;;155.25;43.22;;;;;;;;;;4995556;28;99531;-72
2022/12/11 01:30:57;;;;;;;153.45;41.95;;;;;;;;;;4995684;28;99049;-71
2022/12/11 01:33:24;;;;;;;158.27;43.80;;;;;;;;;;4998529;28;100185;-71
2022/12/11 01:35:50;;;;;;;139.02;41.35;;;;;;;;;;5003084;28;99689;-71
2022/12/11 01:38:16;;;;;;;179.20;43.75;;;;;;;;;;4994076;28;100037;-71
2022/12/11 01:40:46;;;;;;;186.90;42.30;;;;;;;;;;5009390;28;99917;-70
2022/12/11 01:43:18;;;;;;;179.63;44.40;;;;;;;;;;4997093;28;100637;-73
2022/12/11 01:45:46;;;;;;;167.07;42.67;;;;;;;;;;4997594;28;100041;-73
2022/12/11 01:48:21;;;;;;;175.40;45.78;;;;;;;;;;4994557;28;100442;-73
2022/12/11 01:50:58;;;;;;;183.20;43.67;;;;;;;;;;5001931;28;100145;-70
2022/12/11 01:53:30;;;;;;;186.95;43.60;;;;;;;;;;4994835;28;99253;-71
2022/12/11 01:55:57;;;;;;;151.43;39.65;;;;;;;;;;5002011;28;100283;-71
2022/12/11 01:58:26;;;;;;;164.25;42.63;;;;;;;;;;4991705;28;100135;-73
2022/12/11 02:00:54;;;;;;;169.48;42.17;;;;;;;;;;4999008;28;98275;-71
2022/12/11 02:03:20;;;;;;;143.95;42.47;;;;;;;;;;5001179;28;100138;-72
2022/12/11 02:05:47;;;;;;;135.13;39.47;;;;;;;;;;5000210;28;99846;-72
2022/12/11 02:08:14;;;;;;;148.50;42.67;;;;;;;;;;4995654;28;100271;-72
2022/12/11 02:10:46;;;;;;;167.43;44.88;;;;;;;;;;4994788;28;99058;-71
2022/12/11 02:13:17;;;;;;;166.13;43.75;;;;;;;;;;5003116;28;99344;-71
2022/12/11 02:15:54;;;;;;;140.15;43.15;;;;;;;;;;5006192;28;100478;-71
2022/12/11 02:18:24;;;;;;;131.02;40.50;;;;;;;;;;4988830;28;99017;-70
2022/12/11 02:20:57;;;;;;;124.13;37.95;;;;;;;;;;5000680;28;100165;-71
2022/12/11 02:23:34;;;;;;;119.38;39.67;;;;;;;;;;4991816;28;100306;-72
2022/12/11 02:26:18;;;;;;;119.70;39.97;;;;;;;;;;4989422;28;99047;-72
2022/12/11 02:28:52;;;;;;;134.40;39.33;;;;;;;;;;4989378;28;100705;-71
2022/12/11 02:31:26;;;;;;;148.82;42.97;;;;;;;;;;4997520;28;99954;-72
2022/12/11 02:34:14;;;;;;;120.07;40.15;;;;;;;;;;4984934;28;101483;-70
2022/12/11 02:36:44;;;;;;;115.93;40.85;;;;;;;;;;4986822;28;100104;-71
2022/12/11 02:39:12;;;;;;;117.95;42.45;;;;;;;;;;4990490;28;100008;-71
2022/12/11 02:41:41;;;;;;;115.03;39.85;;;;;;;;;;4995708;28;100202;-71
2022/12/11 02:44:09;;;;;;;120.75;41.97;;;;;;;;;;4994448;28;100153;-71
2022/12/11 02:46:36;;;;;;;112.15;40.72;;;;;;;;;;4986123;28;99199;-71
2022/12/11 02:49:04;;;;;;;112.25;39.75;;;;;;;;;;4989199;28;99533;-72
2022/12/11 02:51:33;;;;;;;113.88;43.58;;;;;;;;;;4992996;28;99282;-71
2022/12/11 02:53:59;;;;;;;104.47;38.45;;;;;;;;;;5003859;28;98731;-71
2022/12/11 02:56:29;;;;;;;102.47;40.20;;;;;;;;;;4996908;28;99269;-71
2022/12/11 02:59:00;;;;;;;102.47;38.10;;;;;;;;;;4993948;28;99316;-71
2022/12/11 03:01:27;;;;;;;101.93;39.22;;;;;;;;;;4986361;28;99582;-71
2022/12/11 03:03:55;;;;;;;107.13;38.92;;;;;;;;;;4994358;28;100265;-72
2022/12/11 03:06:23;;;;;;;105.60;39.70;;;;;;;;;;4993118;28;100244;-71
2022/12/11 03:08:50;;;;;;;108.07;40.00;;;;;;;;;;4986003;28;100535;-71
2022/12/11 03:11:17;;;;;;;100.53;38.15;;;;;;;;;;4991146;28;100504;-72
2022/12/11 03:13:43;;;;;;;99.50;39.85;;;;;;;;;;4996316;28;99160;-72
2022/12/11 03:16:28;;;;;;;102.63;38.00;;;;;;;;;;4988486;28;98890;-72
2022/12/11 03:19:13;;;;;;;93.72;38.72;;;;;;;;;;4994121;28;100358;-72
2022/12/11 03:21:46;;;;;;;84.60;37.30;;;;;;;;;;4988843;28;100206;-72
2022/12/11 03:24:32;;;;;;;83.53;37.00;;;;;;;;;;4996590;28;100884;-72
2022/12/11 03:27:01;;;;;;;92.90;37.90;;;;;;;;;;4970905;28;101148;-72
2022/12/11 03:29:36;;;;;;;86.07;36.50;;;;;;;;;;4995887;28;100064;-71
2022/12/11 03:32:10;;;;;;;85.82;36.92;;;;;;;;;;5001755;28;100709;-72
2022/12/11 03:34:42;;;;;;;88.18;37.35;;;;;;;;;;4992541;28;100137;-72
2022/12/11 03:37:09;;;;;;;83.72;36.78;;;;;;;;;;4985242;28;99476;-71
2022/12/11 03:39:37;;;;;;;83.78;37.78;;;;;;;;;;4984902;28;99284;-72
2022/12/11 03:42:05;;;;;;;96.85;39.30;;;;;;;;;;4995857;28;99486;-72
2022/12/11 03:44:33;;;;;;;74.15;34.40;;;;;;;;;;4987873;28;99330;-71
2022/12/11 03:47:00;;;;;;;75.57;35.47;;;;;;;;;;4985840;28;99366;-72
2022/12/11 03:49:30;;;;;;;73.13;34.58;;;;;;;;;;4983342;28;99899;-72
2022/12/11 03:51:58;;;;;;;72.07;35.58;;;;;;;;;;4992451;28;99334;-72
2022/12/11 03:54:26;;;;;;;71.55;34.90;;;;;;;;;;4993472;28;99942;-72
2022/12/11 03:56:54;;;;;;;79.70;36.00;;;;;;;;;;4986788;28;100269;-71
2022/12/11 03:59:20;;;;;;;69.28;35.25;;;;;;;;;;4990038;28;98941;-71
2022/12/11 04:01:47;;;;;;;74.45;35.67;;;;;;;;;;5002534;28;99998;-71
2022/12/11 04:04:14;;;;;;;65.93;33.65;;;;;;;;;;4997649;28;100088;-72
2022/12/11 04:06:40;;;;;;;72.47;36.85;;;;;;;;;;4999530;28;99955;-72
2022/12/11 04:09:06;;;;;;;73.20;35.17;;;;;;;;;;5003921;28;99620;-71
2022/12/11 04:11:33;;;;;;;66.38;33.22;;;;;;;;;;5003399;28;99384;-71
2022/12/11 04:16:52;;;;;;;66.43;32.67;;;;;;;;;;4994050;28;99825;-72
2022/12/11 04:24:49;;;;;;;63.47;34.42;;;;;;;;;;4995801;28;100255;-72
2022/12/11 04:27:50;;;;;;;62.42;34.38;;;;;;;;;;4996198;28;98989;-71
2022/12/11 04:30:11;;;;;;;64.60;33.72;;;;;;;;;;4981383;28;99243;-71
2022/12/11 04:32:38;;;;;;;68.30;35.33;;;;;;;;;;4985533;28;99774;-71
2022/12/11 04:35:06;;;;;;;63.33;34.28;;;;;;;;;;4985146;28;99142;-71
2022/12/11 04:37:32;;;;;;;51.22;32.47;;;;;;;;;;4983683;28;100149;-72
2022/12/11 04:39:58;;;;;;;60.55;32.42;;;;;;;;;;4997281;28;100261;-72
2022/12/11 04:42:25;;;;;;;60.10;32.70;;;;;;;;;;4995548;28;100167;-71
2022/12/11 04:44:51;;;;;;;56.20;32.25;;;;;;;;;;4983373;28;99619;-71
2022/12/11 04:47:17;;;;;;;55.97;30.48;;;;;;;;;;4989934;28;99534;-71
2022/12/11 04:49:43;;;;;;;46.60;29.65;;;;;;;;;;4993785;28;100164;-71
2022/12/11 04:52:10;;;;;;;56.72;32.70;;;;;;;;;;4983096;28;99375;-71
2022/12/11 04:54:36;;;;;;;62.85;33.83;;;;;;;;;;4993786;28;99115;-71
2022/12/11 04:57:03;;;;;;;54.90;31.10;;;;;;;;;;4995209;28;99341;-71
2022/12/11 04:59:30;;;;;;;51.97;31.27;;;;;;;;;;4998480;28;100368;-72
2022/12/11 05:01:57;;;;;;;56.47;30.67;;;;;;;;;;5010221;28;100316;-72
2022/12/11 05:04:23;;;;;;;52.47;31.48;;;;;;;;;;4987393;28;101279;-72
2022/12/11 05:06:50;;;;;;;55.78;31.65;;;;;;;;;;4994602;28;100396;-71
2022/12/11 05:09:16;;;;;;;51.30;30.60;;;;;;;;;;4996764;28;100102;-71
2022/12/11 05:11:43;;;;;;;50.25;30.70;;;;;;;;;;4987931;28;100260;-71
2022/12/11 05:14:09;;;;;;;46.53;30.58;;;;;;;;;;4989503;28;98934;-71
2022/12/11 05:16:36;;;;;;;46.72;29.25;;;;;;;;;;4998064;28;99174;-70
2022/12/11 05:19:02;;;;;;;47.90;28.70;;;;;;;;;;4991096;28;98522;-70
2022/12/11 05:21:28;;;;;;;45.10;29.13;;;;;;;;;;4994933;28;99324;-71
2022/12/11 05:24:00;;;;;;;46.90;29.50;;;;;;;;;;5004936;28;100115;-71
2022/12/11 05:26:26;;;;;;;42.95;28.20;;;;;;;;;;4990473;28;100006;-71
2022/12/11 05:28:53;;;;;;;44.88;28.77;;;;;;;;;;4994353;28;100513;-71
2022/12/11 05:31:21;;;;;;;42.58;27.25;;;;;;;;;;5005955;28;99411;-71
2022/12/11 05:33:49;;;;;;;44.45;26.90;;;;;;;;;;4986301;28;99112;-72
2022/12/11 05:36:17;;;;;;;42.95;26.98;;;;;;;;;;4994069;28;99005;-71
2022/12/11 05:38:44;;;;;;;46.00;28.40;;;;;;;;;;5005343;28;99241;-71
2022/12/11 05:41:12;;;;;;;41.13;26.38;;;;;;;;;;5000251;28;99156;-71
2022/12/11 05:43:38;;;;;;;40.03;27.00;;;;;;;;;;4992453;28;99528;-71
2022/12/11 05:46:15;;;;;;;44.38;26.27;;;;;;;;;;4993126;28;98846;-71
2022/12/11 05:48:42;;;;;;;39.55;27.02;;;;;;;;;;4986896;28;99155;-71
2022/12/11 05:51:09;;;;;;;38.72;24.98;;;;;;;;;;5001692;28;99702;-71
2022/12/11 05:53:36;;;;;;;40.35;27.58;;;;;;;;;;5001115;28;99792;-72
2022/12/11 05:56:05;;;;;;;40.40;28.08;;;;;;;;;;4994951;28;101314;-71
2022/12/11 05:58:31;;;;;;;39.33;26.20;;;;;;;;;;4986913;28;100083;-70
2022/12/11 06:00:58;;;;;;;42.78;26.27;;;;;;;;;;4994747;28;100150;-71
2022/12/11 06:03:24;;;;;;;39.60;26.50;;;;;;;;;;4997651;28;100347;-72
2022/12/11 06:05:50;;;;;;;41.03;25.83;;;;;;;;;;5001801;28;100404;-72
2022/12/11 06:08:17;;;;;;;39.80;26.20;;;;;;;;;;4994796;28;100067;-71
2022/12/11 06:10:47;;;;;;;42.53;26.98;;;;;;;;;;4992804;28;99404;-71
2022/12/11 06:13:13;;;;;;;38.78;24.60;;;;;;;;;;4995980;28;100125;-71
2022/12/11 06:15:40;;;;;;;42.50;25.88;;;;;;;;;;4986624;28;100265;-72
2022/12/11 06:18:07;;;;;;;40.40;26.23;;;;;;;;;;4985307;28;100623;-71
2022/12/11 06:20:33;;;;;;;42.20;26.45;;;;;;;;;;5003654;28;101788;-70
2022/12/11 06:23:00;;;;;;;41.67;25.50;;;;;;;;;;4997016;28;99383;-71
2022/12/11 06:25:27;;;;;;;38.60;24.80;;;;;;;;;;4994494;28;99746;-71
2022/12/11 06:27:53;;;;;;;41.47;25.50;;;;;;;;;;4990534;28;100027;-72
2022/12/11 06:30:20;;;;;;;41.45;27.48;;;;;;;;;;4985904;28;99371;-71
2022/12/11 06:32:46;;;;;;;45.13;27.02;;;;;;;;;;5005266;28;99194;-71
2022/12/11 06:35:13;;;;;;;41.83;26.17;;;;;;;;;;5006188;28;100104;-71
2022/12/11 06:37:39;;;;;;;42.65;26.80;;;;;;;;;;4992972;28;99874;-71
2022/12/11 06:40:07;;;;;;;40.08;25.77;;;;;;;;;;4999512;28;98998;-71
2022/12/11 06:42:34;;;;;;;43.28;27.48;;;;;;;;;;4994435;28;99996;-73
2022/12/11 06:45:00;;;;;;;42.25;26.63;;;;;;;;;;4985992;28;100187;-72
2022/12/11 06:47:27;;;;;;;40.70;26.13;;;;;;;;;;4994226;28;100042;-73
2022/12/11 06:49:54;;;;;;;45.45;26.42;;;;;;;;;;5008336;28;99227;-72
2022/12/11 06:52:21;;;;;;;39.90;26.58;;;;;;;;;;4991367;28;98972;-72
2022/12/11 06:54:47;;;;;;;42.25;27.38;;;;;;;;;;4995307;28;100139;-72
2022/12/11 06:57:14;;;;;;;43.97;26.58;;;;;;;;;;4991564;28;100128;-72
2022/12/11 06:59:41;;;;;;;41.65;26.45;;;;;;;;;;4985889;28;98693;-72
2022/12/11 07:02:11;;;;;;;47.53;25.48;;;;;;;;;;5000853;28;98629;-72
2022/12/11 07:04:37;;;;;;;43.55;26.67;;;;;;;;;;4993946;28;99860;-72
2022/12/11 07:07:04;;;;;;;41.05;26.35;;;;;;;;;;4992489;28;99715;-72
2022/12/11 07:09:30;;;;;;;40.67;25.92;;;;;;;;;;4986374;28;100314;-72
2022/12/11 07:11:57;;;;;;;43.60;26.20;;;;;;;;;;4996908;28;99831;-72
2022/12/11 07:14:23;;;;;;;43.05;28.42;;;;;;;;;;4985429;28;100222;-71
2022/12/11 07:16:50;;;;;;;45.08;28.90;;;;;;;;;;4993523;28;98918;-71
2022/12/11 07:19:16;;;;;;;48.25;30.42;;;;;;;;;;4988362;28;100190;-71
2022/12/11 07:21:42;;;;;;;45.35;28.50;;;;;;;;;;4989197;28;99078;-72
2022/12/11 07:24:09;;;;;;;46.10;30.05;;;;;;;;;;4985896;28;98674;-71
2022/12/11 07:26:35;;;;;;;50.42;31.45;;;;;;;;;;4990723;28;99018;-71
2022/12/11 07:29:02;;;;;;;51.60;30.35;;;;;;;;;;4994104;28;99820;-71
2022/12/11 07:31:29;;;;;;;50.28;30.00;;;;;;;;;;4989596;28;100521;-72
2022/12/11 07:33:56;;;;;;;54.25;30.70;;;;;;;;;;5006865;28;98712;-71
2022/12/11 07:36:23;;;;;;;51.35;30.92;;;;;;;;;;4996773;28;99497;-71
2022/12/11 07:38:49;;;;;;;48.92;30.98;;;;;;;;;;4990151;28;100063;-71
2022/12/11 07:41:16;;;;;;;51.88;31.25;;;;;;;;;;4995065;28;99145;-73
2022/12/11 07:43:51;;;;;;;50.47;29.50;;;;;;;;;;4997687;28;99253;-71
2022/12/11 07:46:19;;;;;;;51.78;31.58;;;;;;;;;;4995583;28;100146;-72
2022/12/11 07:48:46;;;;;;;47.20;29.45;;;;;;;;;;4991064;28;100175;-71
2022/12/11 07:51:17;;;;;;;49.10;29.27;;;;;;;;;;4994593;28;100294;-72
2022/12/11 07:53:46;;;;;;;49.20;30.52;;;;;;;;;;4988177;28;99940;-72
2022/12/11 07:56:14;;;;;;;45.80;28.77;;;;;;;;;;4989189;28;100550;-72
2022/12/11 07:58:40;;;;;;;50.55;29.13;;;;;;;;;;4996686;28;99097;-72
2022/12/11 08:01:35;;;;;;;48.28;29.15;;;;;;;;;;5004035;28;99834;-72
2022/12/11 08:04:03;;;;;;;44.63;28.10;;;;;;;;;;4991336;28;100538;-72
2022/12/11 08:06:30;;;;;;;49.72;30.52;;;;;;;;;;4985426;28;100108;-73
2022/12/11 08:08:57;;;;;;;43.80;26.92;;;;;;;;;;4998840;28;100422;-73
2022/12/11 08:11:24;;;;;;;43.40;30.30;;;;;;;;;;5003352;28;100205;-72
2022/12/11 08:13:52;;;;;;;48.38;29.25;;;;;;;;;;5004567;28;99967;-71
2022/12/11 08:16:18;;;;;;;47.33;30.27;;;;;;;;;;5006993;28;99800;-70
2022/12/11 08:18:45;;;;;;;45.42;31.35;;;;;;;;;;4993630;28;99094;-71
2022/12/11 08:21:19;;;;;;;45.58;28.77;;;;;;;;;;4994095;28;101327;-71
2022/12/11 08:23:46;;;;;;;45.38;30.55;;;;;;;;;;4995324;28;99849;-71
2022/12/11 08:26:17;;;;;;;42.72;29.88;;;;;;;;;;4996109;28;101020;-71
2022/12/11 08:28:44;;;;;;;47.00;31.52;;;;;;;;;;4995460;28;100283;-70
2022/12/11 08:31:12;;;;;;;43.30;30.73;;;;;;;;;;4985508;28;99950;-70
2022/12/11 08:33:39;;;;;;;42.80;30.40;;;;;;;;;;4993130;28;99052;-71
2022/12/11 08:36:10;;;;;;;42.03;29.95;;;;;;;;;;4997332;28;99380;-71
2022/12/11 08:38:37;;;;;;;45.53;30.33;;;;;;;;;;5005414;28;99299;-71
2022/12/11 08:41:09;;;;;;;48.05;32.90;;;;;;;;;;5001907;28;100987;-72
2022/12/11 08:43:35;;;;;;;50.97;29.40;;;;;;;;;;4994770;28;100340;-71
2022/12/11 08:46:01;;;;;;;41.80;28.35;;;;;;;;;;5001936;28;100360;-71
2022/12/11 08:48:28;;;;;;;41.60;28.95;;;;;;;;;;5002843;28;101332;-71
2022/12/11 08:50:57;;;;;;;39.88;27.00;;;;;;;;;;5001794;28;100080;-71
2022/12/11 08:53:24;;;;;;;40.67;28.73;;;;;;;;;;4992131;28;100784;-71
2022/12/11 08:55:50;;;;;;;39.33;30.17;;;;;;;;;;4993685;28;100025;-71
2022/12/11 08:58:17;;;;;;;41.35;30.52;;;;;;;;;;4996626;28;99859;-71
2022/12/11 09:00:43;;;;;;;39.75;26.48;;;;;;;;;;5003800;28;99952;-71
2022/12/11 09:03:09;;;;;;;39.47;27.48;;;;;;;;;;4999936;28;99328;-71
2022/12/11 09:05:38;;;;;;;39.55;27.25;;;;;;;;;;4992667;28;99827;-71
2022/12/11 09:08:06;;;;;;;34.90;26.10;;;;;;;;;;4994817;28;100039;-72
2022/12/11 09:10:32;;;;;;;41.65;27.45;;;;;;;;;;5002615;28;100432;-71
2022/12/11 09:12:59;;;;;;;39.72;27.27;;;;;;;;;;5002322;28;99567;-71
2022/12/11 09:15:25;;;;;;;37.72;28.15;;;;;;;;;;5002638;28;100393;-72
2022/12/11 09:17:51;;;;;;;38.20;25.52;;;;;;;;;;5002216;28;100429;-71
2022/12/11 09:20:18;;;;;;;39.03;25.90;;;;;;;;;;5002594;28;98977;-72
2022/12/11 09:22:44;;;;;;;42.03;26.70;;;;;;;;;;5004684;28;99338;-71
2022/12/11 09:25:10;;;;;;;37.70;25.27;;;;;;;;;;4998810;28;100129;-71
2022/12/11 09:27:37;;;;;;;38.75;26.75;;;;;;;;;;4999047;28;100142;-69
2022/12/11 09:30:04;;;;;;;35.95;25.45;;;;;;;;;;5002354;28;100185;-72
2022/12/11 09:32:32;;;;;;;35.50;25.17;;;;;;;;;;5001736;28;99059;-72
2022/12/11 09:34:58;;;;;;;33.50;25.73;;;;;;;;;;5000560;28;101479;-71
2022/12/11 09:37:25;;;;;;;40.55;26.25;;;;;;;;;;4993746;28;99199;-72
2022/12/11 09:39:51;;;;;;;34.00;25.17;;;;;;;;;;5001895;28;99011;-72
2022/12/11 09:42:22;;;;;;;35.17;25.02;;;;;;;;;;5005854;28;100254;-70
2022/12/11 09:44:50;;;;;;;36.88;26.40;;;;;;;;;;5001281;28;100014;-70
2022/12/11 09:47:16;;;;;;;30.80;24.00;;;;;;;;;;5004256;28;99948;-71
2022/12/11 09:49:43;;;;;;;33.72;25.33;;;;;;;;;;5003592;28;100306;-71
2022/12/11 09:52:17;;;;;;;33.70;25.00;;;;;;;;;;5005610;28;100164;-70
2022/12/11 09:54:49;;;;;;;36.83;25.83;;;;;;;;;;5003587;28;99438;-69
2022/12/11 09:57:24;;;;;;;29.33;22.77;;;;;;;;;;5005066;28;99368;-70
2022/12/11 09:59:50;;;;;;;34.88;25.65;;;;;;;;;;5004557;28;100014;-70
2022/12/11 10:02:35;;;;;;;38.97;24.63;;;;;;;;;;5002534;28;100324;-70
2022/12/11 10:05:17;;;;;;;38.95;26.17;;;;;;;;;;5009111;28;100065;-71
2022/12/11 10:07:46;;;;;;;37.17;25.20;;;;;;;;;;5001994;28;99962;-70
2022/12/11 10:10:23;;;;;;;39.03;26.25;;;;;;;;;;5003684;28;100103;-70
2022/12/11 10:13:08;;;;;;;34.20;24.33;;;;;;;;;;4999906;28;99940;-71
2022/12/11 10:15:44;;;;;;;34.97;24.77;;;;;;;;;;5002768;28;100076;-71
2022/12/11 10:18:16;;;;;;;42.38;27.10;;;;;;;;;;5003924;28;98516;-71
2022/12/11 10:20:46;;;;;;;36.00;25.42;;;;;;;;;;4999396;28;99462;-70
2022/12/11 10:23:17;;;;;;;34.78;25.35;;;;;;;;;;4983224;28;98625;-72
2022/12/11 10:25:50;;;;;;;30.67;23.23;;;;;;;;;;4994091;28;101302;-70
2022/12/11 10:28:18;;;;;;;32.58;24.60;;;;;;;;;;5006784;28;100009;-72
2022/12/11 10:31:02;;;;;;;33.90;25.42;;;;;;;;;;4996095;28;101852;-72
2022/12/11 10:33:36;;;;;;;30.67;24.10;;;;;;;;;;5005042;28;100251;-72
2022/12/11 10:36:04;;;;;;;41.63;25.73;;;;;;;;;;5003302;28;99762;-72
2022/12/11 10:38:32;;;;;;;37.78;24.23;;;;;;;;;;4994753;28;101909;-70
2022/12/11 10:41:03;;;;;;;35.75;25.48;;;;;;;;;;5005109;28;100493;-70
2022/12/11 10:43:41;;;;;;;37.65;25.48;;;;;;;;;;5002200;28;100128;-70
2022/12/11 10:46:17;;;;;;;36.65;24.30;;;;;;;;;;4997538;28;100396;-71
2022/12/11 10:48:54;;;;;;;31.10;23.80;;;;;;;;;;5004669;28;99651;-71
2022/12/11 10:51:23;;;;;;;32.25;23.98;;;;;;;;;;5005484;28;99945;-71
2022/12/11 10:53:54;;;;;;;35.58;23.52;;;;;;;;;;5002732;28;99227;-70
2022/12/11 10:56:24;;;;;;;33.28;23.15;;;;;;;;;;5003624;28;99893;-70
2022/12/11 10:58:51;;;;;;;31.00;23.13;;;;;;;;;;5003829;28;100369;-71
2022/12/11 11:01:20;;;;;;;37.05;24.95;;;;;;;;;;5003205;28;100033;-70
2022/12/11 11:03:52;;;;;;;33.03;24.10;;;;;;;;;;5002122;28;100071;-71
2022/12/11 11:06:20;;;;;;;32.78;22.23;;;;;;;;;;5003561;28;100605;-70
2022/12/11 11:08:47;;;;;;;31.85;22.88;;;;;;;;;;5000857;28;99975;-71
2022/12/11 11:11:20;;;;;;;31.45;22.98;;;;;;;;;;5001220;28;100462;-70
2022/12/11 11:13:46;;;;;;;33.50;23.48;;;;;;;;;;5000863;28;100261;-71
2022/12/11 11:16:15;;;;;;;28.42;22.13;;;;;;;;;;4999917;28;100896;-70
2022/12/11 11:18:47;;;;;;;27.92;20.27;;;;;;;;;;5003108;28;100483;-71
2022/12/11 11:21:17;;;;;;;31.00;22.60;;;;;;;;;;4999671;28;100082;-73
2022/12/11 11:23:44;;;;;;;31.98;21.33;;;;;;;;;;4997611;28;100065;-70
2022/12/11 11:26:19;;;;;;;29.92;21.33;;;;;;;;;;4993233;28;100349;-71
2022/12/11 11:28:47;;;;;;;28.80;20.98;;;;;;;;;;5006393;28;99143;-71
2022/12/11 11:31:14;;;;;;;29.95;21.95;;;;;;;;;;5002802;28;100085;-70
2022/12/11 11:34:04;;;;;;;29.13;21.25;;;;;;;;;;4994313;28;100174;-70
2022/12/11 11:36:32;;;;;;;25.80;19.90;;;;;;;;;;4986742;28;99205;-71
2022/12/11 11:39:02;;;;;;;30.27;20.42;;;;;;;;;;4995494;28;100070;-71
2022/12/11 11:41:32;;;;;;;28.80;19.85;;;;;;;;;;4998905;28;101009;-71
2022/12/11 11:44:09;;;;;;;29.65;20.65;;;;;;;;;;4994128;28;100835;-71
2022/12/11 11:46:37;;;;;;;27.58;19.63;;;;;;;;;;5000715;28;100151;-71
2022/12/11 11:49:06;;;;;;;31.75;21.70;;;;;;;;;;4995587;28;99010;-71
2022/12/11 11:51:34;;;;;;;31.38;21.10;;;;;;;;;;4995839;28;99366;-72
2022/12/11 11:54:06;;;;;;;26.52;20.13;;;;;;;;;;4997883;28;100454;-71
2022/12/11 11:56:35;;;;;;;28.77;19.58;;;;;;;;;;5003046;28;100762;-71
2022/12/11 11:59:22;;;;;;;32.13;20.73;;;;;;;;;;5001536;28;99591;-71
2022/12/11 12:01:49;;;;;;;30.63;19.60;;;;;;;;;;4995936;28;99551;-72
2022/12/11 12:04:15;;;;;;;26.10;19.45;;;;;;;;;;4993080;28;100110;-72
2022/12/11 12:06:57;;;;;;;32.30;20.42;;;;;;;;;;5000618;28;100895;-72
2022/12/11 12:09:39;;;;;;;26.35;19.05;;;;;;;;;;4991729;28;100080;-72
2022/12/11 12:12:06;;;;;;;26.98;19.05;;;;;;;;;;4997949;28;99920;-71
2022/12/11 12:14:38;;;;;;;31.58;20.23;;;;;;;;;;5000470;28;100716;-72
2022/12/11 12:17:30;;;;;;;30.38;19.73;;;;;;;;;;4998714;28;99882;-71
2022/12/11 12:20:03;;;;;;;26.13;19.45;;;;;;;;;;4996756;28;99480;-70
2022/12/11 12:22:29;;;;;;;28.42;19.17;;;;;;;;;;5001895;28;99044;-70
2022/12/11 12:25:22;;;;;;;24.15;18.48;;;;;;;;;;4990950;28;99291;-71
2022/12/11 12:27:52;;;;;;;26.90;18.17;;;;;;;;;;4979674;28;100251;-72
2022/12/11 12:30:19;;;;;;;32.08;19.00;;;;;;;;;;5002342;28;99245;-71
2022/12/11 12:33:02;;;;;;;29.45;19.13;;;;;;;;;;4999109;28;100928;-71
2022/12/11 12:35:34;;;;;;;25.60;18.25;;;;;;;;;;4987833;28;99524;-71
2022/12/11 12:38:13;;;;;;;27.75;17.55;;;;;;;;;;4998252;28;100854;-71
2022/12/11 12:40:42;;;;;;;24.33;17.92;;;;;;;;;;5000174;28;99487;-71
2022/12/11 12:43:11;;;;;;;24.75;18.35;;;;;;;;;;5006000;28;102010;-71
2022/12/11 12:45:41;;;;;;;25.85;18.73;;;;;;;;;;5001179;28;99544;-71
2022/12/11 12:48:08;;;;;;;30.02;19.70;;;;;;;;;;5003116;28;100382;-71
2022/12/11 12:50:41;;;;;;;29.55;18.90;;;;;;;;;;5001074;28;99187;-71
2022/12/11 12:53:09;;;;;;;28.77;18.23;;;;;;;;;;5002339;28;99345;-72
2022/12/11 12:55:38;;;;;;;27.45;18.52;;;;;;;;;;4999557;28;99849;-72
2022/12/11 12:58:05;;;;;;;26.27;18.77;;;;;;;;;;5001525;28;101731;-72
2022/12/11 13:00:34;;;;;;;26.35;18.80;;;;;;;;;;5002993;28;100850;-72
2022/12/11 13:03:03;;;;;;;29.13;18.55;;;;;;;;;;5003221;28;100582;-72
2022/12/11 13:05:31;;;;;;;26.15;18.48;;;;;;;;;;5005963;28;100010;-71
2022/12/11 13:08:00;;;;;;;28.35;18.55;;;;;;;;;;4999276;28;100858;-71
2022/12/11 13:10:33;;;;;;;28.60;19.98;;;;;;;;;;5002556;28;99015;-71
2022/12/11 13:13:01;;;;;;;29.58;20.08;;;;;;;;;;5001582;28;100354;-71
2022/12/11 13:15:27;;;;;;;28.02;18.58;;;;;;;;;;5003062;28;98753;-71
2022/12/11 13:17:54;;;;;;;31.55;20.23;;;;;;;;;;5002156;28;99282;-71
2022/12/11 13:20:21;;;;;;;29.98;19.27;;;;;;;;;;5005953;28;100360;-71
2022/12/11 13:22:50;;;;;;;28.30;20.05;;;;;;;;;;5001117;28;101339;-72
2022/12/11 13:25:21;;;;;;;26.48;18.65;;;;;;;;;;4998514;28;100062;-71
2022/12/11 13:27:48;;;;;;;28.73;19.88;;;;;;;;;;5008941;28;100128;-72
2022/12/11 13:30:15;;;;;;;30.92;19.38;;;;;;;;;;5004826;28;101047;-70
2022/12/11 13:32:42;;;;;;;30.77;19.48;;;;;;;;;;5005842;28;100087;-71
2022/12/11 13:35:14;;;;;;;30.50;20.42;;;;;;;;;;5002466;28;100160;-72
2022/12/11 13:37:46;;;;;;;32.22;21.50;;;;;;;;;;5011940;28;99059;-70
2022/12/11 13:40:16;;;;;;;29.83;20.15;;;;;;;;;;5003258;28;99743;-72
2022/12/11 13:42:56;;;;;;;33.60;20.45;;;;;;;;;;5009656;28;99819;-71
2022/12/11 13:45:22;;;;;;;31.77;21.00;;;;;;;;;;5005681;28;100425;-71
2022/12/11 13:47:49;;;;;;;30.48;22.00;;;;;;;;;;5003254;28;99913;-72
2022/12/11 13:50:20;;;;;;;34.67;21.48;;;;;;;;;;5006840;28;99374;-72
2022/12/11 13:52:53;;;;;;;33.80;21.25;;;;;;;;;;5006435;28;100138;-72
2022/12/11 13:55:26;;;;;;;38.08;21.50;;;;;;;;;;5003839;28;99886;-72
2022/12/11 13:57:52;;;;;;;35.78;22.50;;;;;;;;;;4997577;28;99212;-72
2022/12/11 14:00:21;;;;;;;33.65;21.30;;;;;;;;;;5003855;28;100017;-71
2022/12/11 14:02:49;;;;;;;40.47;22.77;;;;;;;;;;5004528;28;99972;-72
2022/12/11 14:05:15;;;;;;;34.97;24.92;;;;;;;;;;5002338;28;99874;-71
2022/12/11 14:07:45;;;;;;;36.72;22.83;;;;;;;;;;5000120;28;100144;-71
2022/12/11 14:10:23;;;;;;;43.70;29.35;;;;;;;;;;5005150;28;100022;-72
2022/12/11 14:13:06;;;;;;;40.00;24.70;;;;;;;;;;4997554;28;101885;-71
2022/12/11 14:15:34;;;;;;;34.92;21.83;;;;;;;;;;5004045;28;100122;-71
2022/12/11 14:18:02;;;;;;;36.35;24.02;;;;;;;;;;5004662;28;99972;-71
2022/12/11 14:20:29;;;;;;;34.90;22.10;;;;;;;;;;5004783;28;99412;-71
2022/12/11 14:23:14;;;;;;;39.47;23.10;;;;;;;;;;5003914;28;100310;-71
2022/12/11 14:25:41;;;;;;;33.65;22.08;;;;;;;;;;4990659;28;100221;-71
2022/12/11 14:28:26;;;;;;;38.40;24.00;;;;;;;;;;5000367;28;98931;-72